Time;durP1;ratioP1;P1;durP2;ratioP2;P2;SDS_P1;SDS_P2;PMS_P1;PMS_P2;Temp;Humidity;BMP_temperature;BMP_pressure;BME280_temperature;BME280_humidity;BME280_pressure;Samples;Min_cycle;Max_cycle;Signal;HPM_P1;HPM_P2
2020/12/04 00:01:22;;;;;;;25.38;12.63;;;;;;;;;;5064086;28;20052;-82
2020/12/04 00:03:52;;;;;;;21.88;11.20;;;;;;;;;;5088046;28;20333;-82
2020/12/04 00:06:29;;;;;;;24.83;12.43;;;;;;;;;;5067237;28;20350;-82
2020/12/04 00:08:57;;;;;;;24.58;11.90;;;;;;;;;;5063222;28;20055;-81
2020/12/04 00:11:26;;;;;;;25.13;11.23;;;;;;;;;;5074701;28;20044;-82
2020/12/04 00:13:58;;;;;;;21.52;11.18;;;;;;;;;;5064801;28;20070;-82
2020/12/04 00:16:27;;;;;;;24.52;12.50;;;;;;;;;;5074906;28;20053;-82
2020/12/04 00:19:01;;;;;;;26.23;12.93;;;;;;;;;;5056116;28;20119;-81
2020/12/04 00:21:27;;;;;;;21.75;11.25;;;;;;;;;;5058208;28;20055;-82
2020/12/04 00:24:08;;;;;;;23.08;11.48;;;;;;;;;;5058800;28;20328;-81
2020/12/04 00:26:38;;;;;;;25.80;12.18;;;;;;;;;;5059471;28;20048;-82
2020/12/04 00:29:05;;;;;;;28.23;12.88;;;;;;;;;;5060533;28;20298;-82
2020/12/04 00:31:32;;;;;;;25.33;11.80;;;;;;;;;;5076175;28;20060;-82
2020/12/04 00:34:02;;;;;;;23.85;12.15;;;;;;;;;;5075968;28;20032;-81
2020/12/04 00:36:37;;;;;;;26.27;11.50;;;;;;;;;;5069262;28;20053;-83
2020/12/04 00:39:07;;;;;;;23.05;11.18;;;;;;;;;;5070011;28;20061;-81
2020/12/04 00:41:33;;;;;;;23.95;12.32;;;;;;;;;;5074146;28;20240;-81
2020/12/04 00:44:02;;;;;;;22.80;11.35;;;;;;;;;;5064519;28;20360;-81
2020/12/04 00:46:32;;;;;;;24.67;10.02;;;;;;;;;;5059302;28;20059;-81
2020/12/04 00:49:05;;;;;;;22.52;11.35;;;;;;;;;;5058576;28;20165;-81
2020/12/04 00:51:34;;;;;;;26.92;13.32;;;;;;;;;;5058559;28;20041;-82
2020/12/04 00:54:01;;;;;;;25.75;12.32;;;;;;;;;;5058368;28;20095;-81
2020/12/04 00:56:42;;;;;;;23.75;12.20;;;;;;;;;;5062077;28;20059;-82
2020/12/04 00:59:08;;;;;;;25.17;12.23;;;;;;;;;;5059189;28;20140;-81
2020/12/04 01:01:34;;;;;;;25.80;11.63;;;;;;;;;;5055788;28;20049;-81
2020/12/04 01:04:01;;;;;;;25.48;12.02;;;;;;;;;;5062747;28;20118;-81
2020/12/04 01:06:36;;;;;;;25.92;11.82;;;;;;;;;;5062471;28;20093;-82
2020/12/04 01:09:04;;;;;;;24.40;11.57;;;;;;;;;;5080122;28;20040;-81
2020/12/04 01:11:33;;;;;;;22.58;11.50;;;;;;;;;;5084685;28;20044;-82
2020/12/04 01:14:02;;;;;;;21.55;10.75;;;;;;;;;;5082225;28;20044;-81
2020/12/04 01:16:28;;;;;;;24.50;12.75;;;;;;;;;;5080104;28;20082;-81
2020/12/04 01:18:55;;;;;;;24.23;11.05;;;;;;;;;;5081746;28;20059;-81
2020/12/04 01:21:26;;;;;;;28.23;12.35;;;;;;;;;;5080864;28;20044;-82
2020/12/04 01:23:55;;;;;;;24.42;11.88;;;;;;;;;;5060155;28;20059;-82
2020/12/04 01:26:28;;;;;;;24.38;11.63;;;;;;;;;;5068195;28;20056;-82
2020/12/04 01:28:54;;;;;;;20.67;9.23;;;;;;;;;;5080639;28;20059;-81
2020/12/04 01:31:20;;;;;;;20.92;10.45;;;;;;;;;;5089823;28;20036;-82
2020/12/04 01:33:47;;;;;;;20.92;10.00;;;;;;;;;;5095633;28;20059;-81
2020/12/04 01:36:13;;;;;;;20.02;9.27;;;;;;;;;;5088834;28;20044;-81
2020/12/04 01:38:40;;;;;;;22.83;11.70;;;;;;;;;;5082129;28;20059;-81
2020/12/04 01:41:06;;;;;;;22.08;10.82;;;;;;;;;;5072826;28;20105;-81
2020/12/04 01:43:32;;;;;;;24.48;12.00;;;;;;;;;;5077803;28;20039;-81
2020/12/04 01:45:59;;;;;;;19.73;9.70;;;;;;;;;;5118045;28;20183;-82
2020/12/04 01:48:25;;;;;;;21.95;11.23;;;;;;;;;;5103255;28;20109;-82
2020/12/04 01:50:52;;;;;;;25.50;12.13;;;;;;;;;;5090498;28;20048;-81
2020/12/04 01:53:21;;;;;;;24.52;10.82;;;;;;;;;;5117576;28;20059;-81
2020/12/04 01:55:48;;;;;;;20.25;11.23;;;;;;;;;;5133649;28;20055;-82
2020/12/04 01:58:17;;;;;;;23.90;10.80;;;;;;;;;;5123529;28;20055;-82
2020/12/04 02:00:45;;;;;;;22.10;10.63;;;;;;;;;;5104447;28;20055;-82
2020/12/04 02:03:12;;;;;;;21.73;11.05;;;;;;;;;;5098427;28;20067;-82
2020/12/04 02:05:45;;;;;;;22.45;10.93;;;;;;;;;;5110626;28;20047;-82
2020/12/04 02:08:11;;;;;;;21.45;10.93;;;;;;;;;;5102529;28;20048;-81
2020/12/04 02:10:49;;;;;;;21.23;10.40;;;;;;;;;;5103877;28;20051;-81
2020/12/04 02:13:18;;;;;;;19.63;10.30;;;;;;;;;;5099038;28;20055;-82
2020/12/04 02:15:45;;;;;;;22.02;11.30;;;;;;;;;;5099858;28;20048;-82
2020/12/04 02:18:13;;;;;;;22.10;10.70;;;;;;;;;;5099998;28;20048;-81
2020/12/04 02:20:39;;;;;;;19.90;9.95;;;;;;;;;;5100826;28;20040;-81
2020/12/04 02:23:05;;;;;;;21.50;10.55;;;;;;;;;;5100086;28;20075;-82
2020/12/04 02:25:31;;;;;;;19.40;9.82;;;;;;;;;;5102180;28;20114;-81
2020/12/04 02:27:58;;;;;;;22.38;11.27;;;;;;;;;;5114173;28;20071;-81
2020/12/04 02:30:27;;;;;;;22.02;9.13;;;;;;;;;;5100839;28;20337;-81
2020/12/04 02:32:53;;;;;;;25.15;11.25;;;;;;;;;;5081003;28;20047;-81
2020/12/04 02:35:20;;;;;;;23.08;11.18;;;;;;;;;;5081974;28;20051;-81
2020/12/04 02:37:55;;;;;;;21.55;10.27;;;;;;;;;;5106853;28;20052;-81
2020/12/04 02:40:25;;;;;;;21.40;10.10;;;;;;;;;;5088452;28;20062;-81
2020/12/04 02:42:54;;;;;;;22.08;12.10;;;;;;;;;;5103877;28;20359;-82
2020/12/04 02:45:22;;;;;;;19.02;9.88;;;;;;;;;;5083120;28;20070;-81
2020/12/04 02:47:57;;;;;;;23.52;11.95;;;;;;;;;;5081722;28;20316;-81
2020/12/04 02:50:26;;;;;;;24.40;10.82;;;;;;;;;;5085118;28;20405;-81
2020/12/04 02:52:52;;;;;;;22.23;12.00;;;;;;;;;;5078491;28;20486;-81
2020/12/04 02:55:27;;;;;;;20.63;10.15;;;;;;;;;;5078511;28;20102;-81
2020/12/04 02:58:01;;;;;;;19.58;10.02;;;;;;;;;;5084409;28;20047;-81
2020/12/04 03:00:28;;;;;;;22.42;11.30;;;;;;;;;;5089622;28;20427;-81
2020/12/04 03:02:59;;;;;;;19.40;11.10;;;;;;;;;;5078430;28;20382;-81
2020/12/04 03:05:26;;;;;;;22.65;10.73;;;;;;;;;;5079618;28;20048;-81
2020/12/04 03:07:58;;;;;;;20.27;9.63;;;;;;;;;;5078196;28;20131;-81
2020/12/04 03:10:24;;;;;;;24.40;11.07;;;;;;;;;;5077954;28;20427;-81
2020/12/04 03:12:53;;;;;;;25.58;11.80;;;;;;;;;;5078293;28;20052;-81
2020/12/04 03:15:22;;;;;;;22.52;11.40;;;;;;;;;;5091789;28;20243;-81
2020/12/04 03:17:56;;;;;;;21.00;10.18;;;;;;;;;;5095466;28;20063;-81
2020/12/04 03:20:28;;;;;;;23.95;11.90;;;;;;;;;;5085930;28;20066;-82
2020/12/04 03:22:54;;;;;;;22.65;10.65;;;;;;;;;;5079041;28;20300;-81
2020/12/04 03:25:28;;;;;;;20.15;9.98;;;;;;;;;;5093546;28;20086;-81
2020/12/04 03:28:16;;;;;;;20.73;11.00;;;;;;;;;;5077311;28;20049;-81
2020/12/04 03:30:43;;;;;;;23.15;11.25;;;;;;;;;;5087785;28;20066;-82
2020/12/04 03:33:12;;;;;;;20.42;10.75;;;;;;;;;;5087758;28;20049;-81
2020/12/04 03:35:42;;;;;;;22.50;11.98;;;;;;;;;;5099053;28;20052;-82
2020/12/04 03:38:07;;;;;;;22.50;11.65;;;;;;;;;;5079217;28;20489;-81
2020/12/04 03:40:34;;;;;;;23.92;11.25;;;;;;;;;;5084989;28;20055;-81
2020/12/04 03:43:00;;;;;;;20.17;9.80;;;;;;;;;;5091807;28;20148;-81
2020/12/04 03:45:31;;;;;;;19.88;11.00;;;;;;;;;;5097787;28;20063;-81
2020/12/04 03:47:58;;;;;;;28.25;12.23;;;;;;;;;;5114797;28;20062;-81
2020/12/04 03:50:24;;;;;;;18.25;9.98;;;;;;;;;;5100825;28;20050;-81
2020/12/04 03:53:00;;;;;;;28.30;13.18;;;;;;;;;;5086975;28;20062;-81
2020/12/04 03:55:26;;;;;;;22.20;11.45;;;;;;;;;;5095624;28;20048;-81
2020/12/04 03:58:01;;;;;;;26.02;12.93;;;;;;;;;;5098645;28;20438;-81
2020/12/04 04:00:33;;;;;;;21.35;11.95;;;;;;;;;;5111896;28;20044;-81
2020/12/04 04:02:59;;;;;;;25.23;12.18;;;;;;;;;;5108182;28;20048;-81
2020/12/04 04:05:26;;;;;;;26.65;12.70;;;;;;;;;;5085488;28;20324;-81
2020/12/04 04:07:57;;;;;;;27.58;13.27;;;;;;;;;;5099764;28;20385;-82
2020/12/04 04:10:37;;;;;;;24.33;11.90;;;;;;;;;;5081876;28;20059;-82
2020/12/04 04:13:05;;;;;;;24.85;13.75;;;;;;;;;;5094064;28;20058;-82
2020/12/04 04:15:32;;;;;;;24.23;13.23;;;;;;;;;;5105934;28;20052;-83
2020/12/04 04:18:00;;;;;;;25.17;12.85;;;;;;;;;;5102827;28;20060;-84
2020/12/04 04:20:27;;;;;;;28.30;13.45;;;;;;;;;;5080438;28;20343;-84
2020/12/04 04:22:53;;;;;;;26.83;13.90;;;;;;;;;;5097819;28;20420;-85
2020/12/04 04:25:22;;;;;;;29.95;12.98;;;;;;;;;;5100842;28;20104;-85
2020/12/04 04:28:02;;;;;;;28.55;13.45;;;;;;;;;;5083784;28;20082;-85
2020/12/04 04:30:29;;;;;;;28.52;14.00;;;;;;;;;;5102217;28;20332;-86
2020/12/04 04:33:06;;;;;;;30.25;14.23;;;;;;;;;;5086264;28;20100;-86
2020/12/04 04:35:36;;;;;;;26.15;12.68;;;;;;;;;;5116117;28;20400;-86
2020/12/04 04:38:05;;;;;;;26.95;14.30;;;;;;;;;;5111702;28;20039;-86
2020/12/04 04:40:31;;;;;;;28.88;13.07;;;;;;;;;;5097195;28;20100;-86
2020/12/04 04:43:08;;;;;;;30.17;15.15;;;;;;;;;;5107986;28;20216;-87
2020/12/04 04:45:44;;;;;;;33.13;15.32;;;;;;;;;;5098689;28;20130;-87
2020/12/04 04:48:15;;;;;;;32.00;13.80;;;;;;;;;;5106508;28;20044;-86
2020/12/04 04:50:49;;;;;;;33.78;16.55;;;;;;;;;;5115662;28;20107;-87
2020/12/04 04:53:17;;;;;;;34.45;16.65;;;;;;;;;;5099660;28;20043;-86
2020/12/04 04:55:43;;;;;;;27.83;14.60;;;;;;;;;;5104482;28;20066;-86
2020/12/04 04:58:09;;;;;;;32.28;14.02;;;;;;;;;;5101683;28;20036;-87
2020/12/04 05:00:40;;;;;;;28.65;14.90;;;;;;;;;;5087011;28;20055;-87
2020/12/04 05:03:08;;;;;;;29.50;14.10;;;;;;;;;;5114666;28;20088;-87
2020/12/04 05:05:51;;;;;;;30.08;15.40;;;;;;;;;;5116955;28;20044;-86
2020/12/04 05:08:20;;;;;;;28.55;15.60;;;;;;;;;;5114678;28;20040;-86
2020/12/04 05:10:50;;;;;;;27.38;13.80;;;;;;;;;;5095388;28;20348;-86
2020/12/04 05:13:22;;;;;;;35.20;17.67;;;;;;;;;;5100005;28;20043;-86
2020/12/04 05:15:56;;;;;;;32.20;16.73;;;;;;;;;;5102496;28;20044;-86
2020/12/04 05:18:25;;;;;;;34.75;16.63;;;;;;;;;;5107878;28;20104;-86
2020/12/04 05:20:55;;;;;;;35.50;14.98;;;;;;;;;;5089921;28;20062;-86
2020/12/04 05:23:22;;;;;;;35.20;16.48;;;;;;;;;;5094190;28;20047;-86
2020/12/04 05:25:52;;;;;;;30.38;14.65;;;;;;;;;;5110802;28;20174;-86
2020/12/04 05:28:18;;;;;;;32.58;14.93;;;;;;;;;;5107694;28;20108;-87
2020/12/04 05:30:46;;;;;;;34.95;16.00;;;;;;;;;;5078515;28;20052;-85
2020/12/04 05:33:16;;;;;;;26.33;14.10;;;;;;;;;;5090628;28;20040;-85
2020/12/04 05:35:52;;;;;;;32.03;15.75;;;;;;;;;;5099788;28;20146;-85
2020/12/04 05:38:18;;;;;;;37.08;16.55;;;;;;;;;;5103270;28;20342;-85
2020/12/04 05:40:46;;;;;;;37.28;15.50;;;;;;;;;;5092662;28;20454;-85
2020/12/04 05:43:13;;;;;;;32.47;16.48;;;;;;;;;;5094153;28;20234;-85
2020/12/04 05:45:40;;;;;;;36.10;15.00;;;;;;;;;;5113088;28;20048;-84
2020/12/04 05:48:26;;;;;;;33.83;16.63;;;;;;;;;;5097558;28;20094;-84
2020/12/04 05:51:01;;;;;;;35.08;16.48;;;;;;;;;;5101475;28;20120;-84
2020/12/04 05:53:29;;;;;;;33.33;15.88;;;;;;;;;;5077773;28;20056;-84
2020/12/04 05:55:55;;;;;;;30.67;15.98;;;;;;;;;;5083954;28;20211;-84
2020/12/04 05:58:34;;;;;;;33.13;13.88;;;;;;;;;;5114888;28;20048;-84
2020/12/04 06:01:04;;;;;;;33.92;15.93;;;;;;;;;;5098135;28;20297;-84
2020/12/04 06:03:29;;;;;;;35.33;16.50;;;;;;;;;;5096144;28;20426;-83
2020/12/04 06:05:56;;;;;;;36.03;16.08;;;;;;;;;;5099832;28;20044;-84
2020/12/04 06:08:24;;;;;;;32.67;15.43;;;;;;;;;;5094626;28;20032;-84
2020/12/04 06:10:52;;;;;;;33.78;14.68;;;;;;;;;;5105587;28;20071;-84
2020/12/04 06:13:18;;;;;;;34.70;16.38;;;;;;;;;;5098134;28;20040;-84
2020/12/04 06:15:44;;;;;;;35.22;15.07;;;;;;;;;;5098402;28;20130;-84
2020/12/04 06:18:11;;;;;;;32.00;15.70;;;;;;;;;;5079358;28;20142;-85
2020/12/04 06:20:41;;;;;;;31.85;14.32;;;;;;;;;;5077289;28;20455;-85
2020/12/04 06:23:13;;;;;;;35.50;14.52;;;;;;;;;;5082038;28;20075;-84
2020/12/04 06:25:58;;;;;;;32.65;15.25;;;;;;;;;;5105955;28;20047;-84
2020/12/04 06:28:25;;;;;;;;;;;;;;;;;;5110953;28;20327;-84
2020/12/04 06:30:59;;;;;;;30.77;14.93;;;;;;;;;;5096211;28;19931;-84
2020/12/04 06:33:30;;;;;;;35.35;16.60;;;;;;;;;;5076615;28;20043;-85
2020/12/04 06:35:59;;;;;;;37.13;15.57;;;;;;;;;;5109359;28;20048;-85
2020/12/04 06:38:40;;;;;;;34.42;15.77;;;;;;;;;;5102592;28;20063;-87
2020/12/04 06:41:27;;;;;;;40.60;18.15;;;;;;;;;;5090630;28;20093;-87
2020/12/04 06:44:00;;;;;;;33.35;16.13;;;;;;;;;;5087317;28;20557;-86
2020/12/04 06:46:28;;;;;;;29.02;14.50;;;;;;;;;;5081714;28;20155;-86
2020/12/04 06:51:59;;;;;;;33.70;15.10;;;;;;;;;;5065928;28;20054;-85
2020/12/04 06:54:27;;;;;;;32.92;15.98;;;;;;;;;;5093717;28;20062;-85
2020/12/04 06:57:00;;;;;;;36.15;17.65;;;;;;;;;;5079244;28;20052;-84
2020/12/04 06:59:31;;;;;;;35.40;16.00;;;;;;;;;;5070089;28;20147;-84
2020/12/04 07:02:08;;;;;;;36.65;15.73;;;;;;;;;;5080134;28;20305;-84
2020/12/04 07:04:36;;;;;;;30.23;14.77;;;;;;;;;;5074394;28;20078;-84
2020/12/04 07:07:03;;;;;;;32.65;14.10;;;;;;;;;;5086717;28;20376;-83
2020/12/04 07:09:30;;;;;;;33.22;16.98;;;;;;;;;;5073564;28;20060;-84
2020/12/04 07:12:00;;;;;;;31.17;15.50;;;;;;;;;;5072265;28;20256;-84
2020/12/04 07:14:27;;;;;;;35.83;16.80;;;;;;;;;;5082615;28;20052;-83
2020/12/04 07:16:54;;;;;;;34.13;15.70;;;;;;;;;;5085014;28;20105;-83
2020/12/04 07:19:29;;;;;;;35.47;16.77;;;;;;;;;;5078160;28;20094;-84
2020/12/04 07:21:59;;;;;;;31.80;15.48;;;;;;;;;;5082427;28;20052;-84
2020/12/04 07:24:29;;;;;;;35.17;15.30;;;;;;;;;;5079058;28;20040;-84
2020/12/04 07:26:58;;;;;;;32.58;16.08;;;;;;;;;;5078090;28;20411;-82
2020/12/04 07:29:28;;;;;;;30.20;15.63;;;;;;;;;;5088481;28;20176;-82
2020/12/04 07:31:56;;;;;;;27.70;13.10;;;;;;;;;;5098288;28;20047;-82
2020/12/04 07:34:25;;;;;;;30.10;14.68;;;;;;;;;;5095517;28;20047;-84
2020/12/04 07:36:55;;;;;;;32.03;15.95;;;;;;;;;;5085559;28;20113;-82
2020/12/04 07:39:27;;;;;;;33.88;16.67;;;;;;;;;;5072079;28;20062;-83
2020/12/04 07:41:59;;;;;;;37.72;16.42;;;;;;;;;;5086587;28;20052;-83
2020/12/04 07:44:39;;;;;;;30.20;14.65;;;;;;;;;;5088846;28;20533;-83
2020/12/04 07:47:16;;;;;;;31.45;14.90;;;;;;;;;;5091953;28;20047;-83
2020/12/04 07:49:52;;;;;;;33.65;16.65;;;;;;;;;;5091300;28;20137;-83
2020/12/04 07:52:25;;;;;;;39.90;17.70;;;;;;;;;;5107092;28;20304;-83
2020/12/04 07:54:58;;;;;;;31.52;15.27;;;;;;;;;;5098659;28;20190;-83
2020/12/04 07:57:28;;;;;;;32.75;16.00;;;;;;;;;;5071435;28;20043;-83
2020/12/04 07:59:55;;;;;;;33.72;16.17;;;;;;;;;;5107082;28;20331;-83
2020/12/04 08:02:25;;;;;;;35.55;17.48;;;;;;;;;;5108149;28;20055;-83
2020/12/04 08:04:59;;;;;;;33.05;15.50;;;;;;;;;;5090479;28;20436;-84
2020/12/04 08:07:29;;;;;;;37.97;17.17;;;;;;;;;;5097884;28;20225;-83
2020/12/04 08:09:55;;;;;;;27.88;12.85;;;;;;;;;;5082429;28;20326;-86
2020/12/04 08:12:23;;;;;;;33.13;16.60;;;;;;;;;;5082343;28;20108;-83
2020/12/04 08:14:53;;;;;;;34.30;16.33;;;;;;;;;;5082783;28;20054;-85
2020/12/04 08:17:23;;;;;;;33.05;15.90;;;;;;;;;;5082189;28;20055;-85
2020/12/04 08:19:55;;;;;;;34.45;16.17;;;;;;;;;;5100452;28;20099;-86
2020/12/04 08:22:32;;;;;;;34.15;16.20;;;;;;;;;;5099806;28;20043;-86
2020/12/04 08:25:07;;;;;;;39.55;17.15;;;;;;;;;;5117919;28;20064;-86
2020/12/04 08:27:44;;;;;;;35.85;16.85;;;;;;;;;;5106476;28;20371;-85
2020/12/04 08:30:16;;;;;;;39.90;17.40;;;;;;;;;;5084814;28;20047;-85
2020/12/04 08:32:45;;;;;;;44.65;19.27;;;;;;;;;;5112558;28;20121;-86
2020/12/04 08:35:18;;;;;;;35.83;16.48;;;;;;;;;;5096966;28;20188;-86
2020/12/04 08:37:46;;;;;;;35.80;16.63;;;;;;;;;;5088740;28;20050;-85
2020/12/04 08:40:24;;;;;;;33.47;16.65;;;;;;;;;;5080757;28;20338;-85
2020/12/04 08:42:51;;;;;;;38.28;18.20;;;;;;;;;;5086165;28;20100;-85
2020/12/04 08:45:29;;;;;;;38.53;17.08;;;;;;;;;;5096070;28;20086;-85
2020/12/04 08:48:08;;;;;;;34.25;17.63;;;;;;;;;;5077861;28;20056;-85
2020/12/04 08:50:53;;;;;;;39.47;17.23;;;;;;;;;;5093926;28;20048;-85
2020/12/04 08:53:20;;;;;;;32.17;15.07;;;;;;;;;;5097891;28;20023;-85
2020/12/04 08:55:50;;;;;;;34.58;16.70;;;;;;;;;;5105202;28;20085;-85
2020/12/04 08:58:17;;;;;;;35.75;16.58;;;;;;;;;;5103149;28;20342;-86
2020/12/04 09:00:47;;;;;;;33.90;16.75;;;;;;;;;;5093417;28;20101;-84
2020/12/04 09:03:14;;;;;;;33.05;15.70;;;;;;;;;;5086348;28;20040;-85
2020/12/04 09:05:49;;;;;;;38.38;17.83;;;;;;;;;;5087109;28;20131;-85
2020/12/04 09:08:19;;;;;;;35.63;16.63;;;;;;;;;;5112159;28;20079;-85
2020/12/04 09:10:48;;;;;;;32.85;15.88;;;;;;;;;;5091692;28;20102;-85
2020/12/04 09:13:18;;;;;;;37.80;16.83;;;;;;;;;;5092206;28;20110;-85
2020/12/04 09:15:50;;;;;;;34.05;16.15;;;;;;;;;;5096344;28;20154;-85
2020/12/04 09:18:16;;;;;;;33.75;16.42;;;;;;;;;;5094530;28;20051;-84
2020/12/04 09:20:42;;;;;;;30.35;14.82;;;;;;;;;;5103290;28;20458;-84
2020/12/04 09:23:13;;;;;;;32.78;16.67;;;;;;;;;;5084540;28;20071;-84
2020/12/04 09:25:41;;;;;;;33.72;16.35;;;;;;;;;;5109325;28;20429;-84
2020/12/04 09:28:16;;;;;;;34.47;16.48;;;;;;;;;;5108818;28;20047;-84
2020/12/04 09:30:48;;;;;;;33.33;16.70;;;;;;;;;;5109254;28;20071;-84
2020/12/04 09:33:14;;;;;;;33.00;15.45;;;;;;;;;;5087275;28;20606;-84
2020/12/04 09:35:50;;;;;;;31.05;16.10;;;;;;;;;;5112849;28;20400;-84
2020/12/04 09:38:19;;;;;;;28.23;14.33;;;;;;;;;;5091325;28;20043;-83
2020/12/04 09:40:48;;;;;;;36.33;16.25;;;;;;;;;;5104682;28;20028;-83
2020/12/04 09:43:18;;;;;;;32.83;14.65;;;;;;;;;;5092354;28;20135;-83
2020/12/04 09:45:57;;;;;;;32.60;15.77;;;;;;;;;;5088922;28;20192;-82
2020/12/04 09:48:24;;;;;;;32.65;14.55;;;;;;;;;;5093493;28;20046;-83
2020/12/04 09:50:52;;;;;;;33.38;16.52;;;;;;;;;;5087427;28;20173;-83
2020/12/04 09:53:19;;;;;;;37.70;17.02;;;;;;;;;;5068098;28;20288;-83
2020/12/04 09:55:52;;;;;;;31.67;15.13;;;;;;;;;;5108843;28;20071;-83
2020/12/04 09:58:18;;;;;;;32.63;15.57;;;;;;;;;;5117751;28;20135;-83
2020/12/04 10:00:44;;;;;;;33.33;15.48;;;;;;;;;;5110899;28;20036;-83
2020/12/04 10:03:14;;;;;;;34.20;15.63;;;;;;;;;;5083038;28;20044;-83
2020/12/04 10:05:42;;;;;;;26.65;12.93;;;;;;;;;;5098991;28;20048;-83
2020/12/04 10:08:09;;;;;;;24.83;12.85;;;;;;;;;;5108579;28;20043;-83
2020/12/04 10:10:49;;;;;;;32.25;15.02;;;;;;;;;;5102036;28;20051;-83
2020/12/04 10:13:16;;;;;;;27.55;13.27;;;;;;;;;;5091859;28;20078;-83
2020/12/04 10:15:45;;;;;;;25.10;12.77;;;;;;;;;;5088500;28;20040;-83
2020/12/04 10:18:24;;;;;;;26.52;13.55;;;;;;;;;;5103229;28;20040;-83
2020/12/04 10:20:54;;;;;;;30.40;14.82;;;;;;;;;;5096907;28;20102;-83
2020/12/04 10:23:25;;;;;;;28.63;13.00;;;;;;;;;;5094387;28;20074;-83
2020/12/04 10:25:51;;;;;;;27.05;13.85;;;;;;;;;;5095981;28;20043;-83
2020/12/04 10:28:21;;;;;;;26.73;13.65;;;;;;;;;;5089657;28;20339;-83
2020/12/04 10:30:51;;;;;;;28.50;14.70;;;;;;;;;;5114968;28;20063;-84
2020/12/04 10:33:20;;;;;;;27.92;13.63;;;;;;;;;;5119179;28;20039;-83
2020/12/04 10:35:46;;;;;;;27.25;13.80;;;;;;;;;;5086077;28;20323;-83
2020/12/04 10:38:24;;;;;;;31.27;14.02;;;;;;;;;;5089742;28;20075;-83
2020/12/04 10:40:55;;;;;;;25.73;12.77;;;;;;;;;;5090050;28;20040;-83
2020/12/04 10:43:25;;;;;;;24.02;12.43;;;;;;;;;;5086408;28;20044;-84
2020/12/04 10:45:52;;;;;;;27.65;13.60;;;;;;;;;;5058333;28;20095;-85
2020/12/04 10:48:24;;;;;;;27.05;12.48;;;;;;;;;;5061081;28;20215;-84
2020/12/04 10:50:54;;;;;;;25.30;12.18;;;;;;;;;;5051538;28;20048;-84
2020/12/04 10:53:26;;;;;;;28.98;13.25;;;;;;;;;;5061630;28;20118;-83
2020/12/04 10:55:54;;;;;;;24.15;12.57;;;;;;;;;;5062656;28;20151;-83
2020/12/04 10:58:25;;;;;;;21.55;12.05;;;;;;;;;;5066099;28;20052;-83
2020/12/04 11:00:52;;;;;;;25.88;13.48;;;;;;;;;;5064305;28;20052;-84
2020/12/04 11:06:22;;;;;;;24.45;12.68;;;;;;;;;;5042044;28;20413;-83
2020/12/04 11:08:50;;;;;;;28.92;13.00;;;;;;;;;;5058566;28;20341;-83
2020/12/04 11:11:27;;;;;;;26.23;13.13;;;;;;;;;;5051513;28;20526;-83
2020/12/04 11:13:59;;;;;;;;;;;;;;;;;;5086769;28;20055;-84
2020/12/04 11:16:49;;;;;;;27.40;13.45;;;;;;;;;;5063869;28;19921;-84
2020/12/04 11:19:16;;;;;;;30.15;13.40;;;;;;;;;;5058504;28;20048;-84
2020/12/04 11:21:43;;;;;;;27.95;13.75;;;;;;;;;;5065749;28;20168;-83
2020/12/04 11:24:10;;;;;;;25.45;13.05;;;;;;;;;;5078427;28;20313;-84
2020/12/04 11:26:36;;;;;;;26.98;12.68;;;;;;;;;;5063278;28;20080;-84
2020/12/04 11:29:03;;;;;;;30.45;13.57;;;;;;;;;;5079341;28;20190;-84
2020/12/04 11:31:31;;;;;;;26.02;12.20;;;;;;;;;;5061964;28;20076;-84
2020/12/04 11:33:58;;;;;;;29.92;12.90;;;;;;;;;;5068056;28;20056;-84
2020/12/04 11:36:25;;;;;;;24.98;11.23;;;;;;;;;;5054287;28;20045;-84
2020/12/04 11:38:51;;;;;;;23.38;11.80;;;;;;;;;;5068682;28;20131;-84
2020/12/04 11:41:18;;;;;;;25.58;12.85;;;;;;;;;;5090843;28;20096;-84
2020/12/04 11:43:46;;;;;;;24.10;11.38;;;;;;;;;;5090548;28;20153;-83
2020/12/04 11:46:15;;;;;;;24.50;10.45;;;;;;;;;;5106556;28;20039;-82
2020/12/04 11:52:19;;;;;;;23.25;12.75;;;;;;;;;;5078554;28;20397;-84
2020/12/04 11:54:49;;;;;;;25.80;12.90;;;;;;;;;;5077526;28;20051;-83
2020/12/04 11:57:15;;;;;;;26.80;11.18;;;;;;;;;;5076213;28;20400;-83
2020/12/04 11:59:41;;;;;;;23.85;11.13;;;;;;;;;;5082774;28;20104;-84
2020/12/04 12:02:18;;;;;;;27.85;11.45;;;;;;;;;;5098030;28;20048;-83
2020/12/04 12:04:46;;;;;;;27.80;12.07;;;;;;;;;;5091818;28;20082;-84
2020/12/04 12:07:15;;;;;;;26.55;11.70;;;;;;;;;;5111378;28;20055;-83
2020/12/04 12:09:47;;;;;;;30.40;12.13;;;;;;;;;;5109673;28;20098;-84
2020/12/04 12:12:43;;;;;;;30.98;12.18;;;;;;;;;;5094902;28;20071;-83
2020/12/04 12:15:10;;;;;;;26.13;11.40;;;;;;;;;;5073492;28;20080;-83
2020/12/04 12:17:36;;;;;;;29.98;11.35;;;;;;;;;;5093536;28;20062;-83
2020/12/04 12:20:03;;;;;;;27.23;11.68;;;;;;;;;;5091978;28;20047;-83
2020/12/04 12:22:31;;;;;;;27.83;11.93;;;;;;;;;;5096409;28;20040;-82
2020/12/04 12:24:58;;;;;;;27.48;11.10;;;;;;;;;;5108752;28;20355;-84
2020/12/04 12:27:25;;;;;;;23.73;11.52;;;;;;;;;;5082523;28;20074;-84
2020/12/04 12:29:57;;;;;;;25.48;11.18;;;;;;;;;;5093767;28;20228;-83
2020/12/04 12:32:29;;;;;;;;;;;;;;;;;;5094560;28;20056;-84
2020/12/04 12:35:19;;;;;;;25.52;10.55;;;;;;;;;;5094161;28;19946;-83
2020/12/04 12:37:47;;;;;;;24.40;10.45;;;;;;;;;;5093497;28;20145;-84
2020/12/04 12:40:14;;;;;;;26.67;11.63;;;;;;;;;;5107192;28;20505;-84
2020/12/04 12:42:41;;;;;;;25.90;10.65;;;;;;;;;;5092731;28;20056;-84
2020/12/04 12:45:13;;;;;;;24.08;10.23;;;;;;;;;;5092950;28;20305;-84
2020/12/04 12:47:41;;;;;;;25.27;10.85;;;;;;;;;;5089654;28;20423;-84
2020/12/04 12:50:07;;;;;;;25.17;11.55;;;;;;;;;;5091544;28;20051;-84
2020/12/04 12:52:36;;;;;;;24.35;10.52;;;;;;;;;;5083612;28;20419;-83
2020/12/04 12:55:06;;;;;;;27.63;11.77;;;;;;;;;;5102743;28;20044;-83
2020/12/04 12:57:33;;;;;;;30.20;12.30;;;;;;;;;;5083136;28;20063;-83
2020/12/04 12:59:59;;;;;;;29.15;11.95;;;;;;;;;;5081283;28;20069;-83
2020/12/04 13:02:29;;;;;;;26.70;11.32;;;;;;;;;;5108545;28;20044;-83
2020/12/04 13:04:56;;;;;;;31.17;11.82;;;;;;;;;;5102921;28;20141;-84
2020/12/04 13:07:23;;;;;;;28.55;11.05;;;;;;;;;;5126407;28;20044;-84
2020/12/04 13:09:52;;;;;;;25.23;10.30;;;;;;;;;;5109994;28;20046;-84
2020/12/04 13:12:18;;;;;;;22.63;10.75;;;;;;;;;;5116410;28;20239;-84
2020/12/04 13:14:45;;;;;;;28.27;11.35;;;;;;;;;;5097797;28;20075;-84
2020/12/04 13:17:16;;;;;;;30.75;11.82;;;;;;;;;;5096535;28;20450;-84
2020/12/04 13:19:47;;;;;;;27.63;11.38;;;;;;;;;;5092906;28;20044;-84
2020/12/04 13:22:17;;;;;;;29.83;11.85;;;;;;;;;;5077861;28;20055;-84
2020/12/04 13:24:46;;;;;;;27.00;10.93;;;;;;;;;;5102291;28;20102;-83
2020/12/04 13:27:18;;;;;;;24.75;10.88;;;;;;;;;;5088707;28;20052;-84
2020/12/04 13:29:50;;;;;;;24.42;10.75;;;;;;;;;;5096764;28;20090;-84
2020/12/04 13:32:17;;;;;;;27.63;11.82;;;;;;;;;;5117045;28;20439;-84
2020/12/04 13:34:48;;;;;;;28.67;10.77;;;;;;;;;;5094262;28;20544;-84
2020/12/04 13:37:33;;;;;;;24.52;10.55;;;;;;;;;;5093170;28;20925;-83
2020/12/04 13:39:59;;;;;;;23.45;10.80;;;;;;;;;;5090177;28;20048;-83
2020/12/04 13:42:31;;;;;;;28.88;11.68;;;;;;;;;;5109528;28;20402;-83
2020/12/04 13:44:58;;;;;;;24.85;10.40;;;;;;;;;;5091879;28;20064;-83
2020/12/04 13:47:25;;;;;;;27.92;11.77;;;;;;;;;;5088265;28;20058;-83
2020/12/04 13:49:52;;;;;;;25.60;11.00;;;;;;;;;;5095914;28;20048;-83
2020/12/04 13:52:19;;;;;;;24.15;10.30;;;;;;;;;;5078112;28;20040;-83
2020/12/04 13:54:50;;;;;;;27.92;10.55;;;;;;;;;;5072233;28;20143;-82
2020/12/04 13:57:16;;;;;;;30.80;11.77;;;;;;;;;;5091610;28;20128;-83
2020/12/04 13:59:53;;;;;;;26.65;10.85;;;;;;;;;;5091147;28;20184;-83
2020/12/04 14:02:21;;;;;;;27.10;11.13;;;;;;;;;;5090139;28;20130;-83
2020/12/04 14:04:51;;;;;;;27.02;10.38;;;;;;;;;;5090626;28;20044;-83
2020/12/04 14:07:21;;;;;;;25.70;10.98;;;;;;;;;;5073412;28;20078;-83
2020/12/04 14:09:48;;;;;;;29.90;10.90;;;;;;;;;;5073311;28;20346;-82
2020/12/04 14:12:15;;;;;;;26.33;11.60;;;;;;;;;;5072361;28;20048;-83
2020/12/04 14:14:50;;;;;;;41.88;12.63;;;;;;;;;;5093507;28;20104;-82
2020/12/04 14:17:24;;;;;;;26.58;10.55;;;;;;;;;;5106501;28;20301;-82
2020/12/04 14:19:50;;;;;;;33.10;11.80;;;;;;;;;;5088811;28;20162;-84
2020/12/04 14:22:22;;;;;;;26.83;11.60;;;;;;;;;;5108476;28;20113;-83
2020/12/04 14:24:49;;;;;;;23.70;9.98;;;;;;;;;;5091368;28;20044;-83
2020/12/04 14:27:23;;;;;;;24.20;11.23;;;;;;;;;;5090094;28;20168;-84
2020/12/04 14:29:53;;;;;;;29.25;11.25;;;;;;;;;;5093108;28;20052;-84
2020/12/04 14:32:20;;;;;;;28.70;10.90;;;;;;;;;;5092946;28;20111;-84
2020/12/04 14:35:00;;;;;;;23.25;10.63;;;;;;;;;;5095182;28;20043;-84
2020/12/04 14:37:30;;;;;;;25.42;10.02;;;;;;;;;;5112226;28;20059;-84
2020/12/04 14:43:01;;;;;;;24.85;10.20;;;;;;;;;;5101407;28;20055;-84
2020/12/04 14:45:29;;;;;;;27.60;10.23;;;;;;;;;;5111488;28;20263;-84
2020/12/04 14:47:56;;;;;;;26.75;11.35;;;;;;;;;;5092623;28;20055;-84